Time;durP1;ratioP1;P1;durP2;ratioP2;P2;SDS_P1;SDS_P2;PMS_P1;PMS_P2;Temp;Humidity;BMP_temperature;BMP_pressure;BME280_temperature;BME280_humidity;BME280_pressure;Samples;Min_cycle;Max_cycle;Signal;HPM_P1;HPM_P2
2022/06/30 00:00:29;;;;;;;5.88;5.38;;;19.80;99.90;;;;;;4950509;29;20067;-85
2022/06/30 00:02:55;;;;;;;6.88;5.57;;;19.70;99.90;;;;;;4925666;29;20407;-86
2022/06/30 00:05:21;;;;;;;7.10;5.22;;;19.60;99.90;;;;;;4948063;28;20111;-85
2022/06/30 00:07:46;;;;;;;6.00;5.50;;;19.50;99.90;;;;;;4957489;28;20035;-86
2022/06/30 00:10:12;;;;;;;5.28;4.88;;;19.50;99.90;;;;;;4947454;28;20077;-85
2022/06/30 00:12:39;;;;;;;5.75;5.25;;;19.40;99.90;;;;;;4939710;28;20111;-85
2022/06/30 00:15:05;;;;;;;5.50;5.00;;;19.30;99.90;;;;;;4949820;28;20055;-85
2022/06/30 00:17:31;;;;;;;5.70;5.20;;;19.30;99.90;;;;;;4946483;28;20578;-85
2022/06/30 00:19:57;;;;;;;5.70;5.20;;;19.20;99.90;;;;;;4940654;28;20031;-86
2022/06/30 00:22:23;;;;;;;6.05;5.43;;;19.10;99.90;;;;;;4938158;28;20099;-86
2022/06/30 00:24:48;;;;;;;5.75;5.35;;;19.10;99.90;;;;;;4932089;29;20066;-85
2022/06/30 00:27:15;;;;;;;6.18;5.60;;;19.00;99.90;;;;;;4950069;28;20491;-86
2022/06/30 00:29:41;;;;;;;5.88;5.03;;;19.00;99.90;;;;;;4943553;28;20047;-86
2022/06/30 00:32:07;;;;;;;5.95;5.45;;;18.90;99.90;;;;;;4949831;28;20089;-86
2022/06/30 00:34:33;;;;;;;6.88;6.28;;;18.90;99.90;;;;;;4932969;28;20526;-85
2022/06/30 00:36:58;;;;;;;5.47;5.07;;;18.80;99.90;;;;;;4973249;28;20036;-86
2022/06/30 00:39:27;;;;;;;6.70;6.10;;;18.80;99.90;;;;;;4934788;29;20651;-85
2022/06/30 00:41:52;;;;;;;6.35;5.85;;;18.70;99.90;;;;;;4934414;28;21334;-85
2022/06/30 00:44:18;;;;;;;6.72;5.68;;;18.70;99.90;;;;;;4939940;28;20559;-86
2022/06/30 00:46:44;;;;;;;6.05;5.60;;;18.60;99.90;;;;;;4936408;28;20039;-86
2022/06/30 00:49:10;;;;;;;6.75;6.05;;;18.70;99.90;;;;;;4936333;28;20118;-85
2022/06/30 00:51:35;;;;;;;6.75;6.00;;;18.60;99.90;;;;;;4944436;28;20070;-86
2022/06/30 00:54:03;;;;;;;6.93;6.20;;;18.60;99.90;;;;;;4952281;28;20042;-85
2022/06/30 00:56:30;;;;;;;6.78;6.15;;;18.60;99.90;;;;;;4941875;29;20059;-85
2022/06/30 00:59:01;;;;;;;9.30;6.05;;;18.50;99.90;;;;;;4932772;28;20035;-85
2022/06/30 01:01:29;;;;;;;7.72;6.20;;;18.50;99.90;;;;;;4941841;29;20396;-86
2022/06/30 01:03:55;;;;;;;6.55;6.05;;;18.50;99.90;;;;;;4952940;28;20039;-86
2022/06/30 01:06:22;;;;;;;7.50;5.93;;;18.40;99.90;;;;;;4935358;29;20051;-85
2022/06/30 01:08:49;;;;;;;6.07;5.57;;;18.40;99.90;;;;;;4936292;28;20443;-85
2022/06/30 01:14:01;;;;;;;7.45;6.40;;;18.40;99.90;;;;;;4955710;28;20511;-86
2022/06/30 01:16:27;;;;;;;6.40;5.80;;;18.40;99.90;;;;;;4950902;28;20034;-86
2022/06/30 01:18:52;;;;;;;6.25;5.75;;;18.40;99.90;;;;;;4937667;28;20038;-86
2022/06/30 01:21:18;;;;;;;6.10;5.60;;;18.40;99.90;;;;;;4950125;28;20066;-86
2022/06/30 01:23:44;;;;;;;5.78;5.28;;;18.30;99.90;;;;;;4953026;28;20035;-86
2022/06/30 01:26:10;;;;;;;6.47;5.82;;;18.30;99.90;;;;;;4952806;28;20050;-85
2022/06/30 01:28:36;;;;;;;5.97;5.47;;;18.30;99.90;;;;;;4948953;28;20040;-85
2022/06/30 01:31:01;;;;;;;6.40;5.90;;;18.30;99.90;;;;;;4947010;28;20053;-86
2022/06/30 01:33:27;;;;;;;6.22;5.80;;;18.20;99.90;;;;;;4938631;28;20419;-86
2022/06/30 01:35:56;;;;;;;8.10;5.47;;;18.20;99.90;;;;;;4941356;28;20484;-85
2022/06/30 01:38:22;;;;;;;6.38;5.88;;;18.20;99.90;;;;;;4944081;28;20035;-86
2022/06/30 01:40:48;;;;;;;5.57;5.18;;;18.20;99.90;;;;;;4956168;28;20046;-86
2022/06/30 01:43:14;;;;;;;5.93;5.40;;;18.20;99.90;;;;;;4929987;28;20046;-86
2022/06/30 01:45:40;;;;;;;5.97;5.38;;;18.20;99.90;;;;;;4954772;28;20039;-85
2022/06/30 01:48:07;;;;;;;6.70;6.00;;;18.20;99.90;;;;;;4955551;28;20533;-86
2022/06/30 01:50:33;;;;;;;5.97;5.53;;;18.20;99.90;;;;;;4956630;28;20407;-86
2022/06/30 01:52:59;;;;;;;6.78;5.70;;;18.20;99.90;;;;;;4955657;28;20062;-86
2022/06/30 01:55:25;;;;;;;7.10;5.28;;;18.20;99.90;;;;;;4936984;28;20039;-86
2022/06/30 01:57:51;;;;;;;6.22;5.68;;;18.20;99.90;;;;;;4950241;28;20039;-86
2022/06/30 02:00:20;;;;;;;7.20;6.10;;;18.20;99.90;;;;;;4945141;28;20031;-86
2022/06/30 02:02:46;;;;;;;5.63;5.22;;;18.20;99.90;;;;;;4932424;28;20204;-86
2022/06/30 02:05:12;;;;;;;5.78;5.28;;;18.10;99.90;;;;;;4949962;28;20530;-86
2022/06/30 02:07:39;;;;;;;6.03;5.43;;;18.10;99.90;;;;;;4939367;28;20043;-86
2022/06/30 02:10:11;;;;;;;6.22;5.72;;;18.00;99.90;;;;;;4954261;28;20069;-86
2022/06/30 02:12:45;;;;;;;6.50;5.90;;;18.00;99.90;;;;;;4944082;29;20508;-86
2022/06/30 02:15:21;;;;;;;6.43;5.88;;;18.00;99.90;;;;;;4947061;28;20045;-86
2022/06/30 02:17:49;;;;;;;6.25;5.85;;;17.90;99.90;;;;;;4942098;29;20458;-86
2022/06/30 02:20:20;;;;;;;8.70;6.05;;;17.90;99.90;;;;;;4930640;28;20031;-86
2022/06/30 02:22:47;;;;;;;7.25;6.60;;;17.90;99.90;;;;;;4931055;29;20061;-85
2022/06/30 02:25:13;;;;;;;6.93;6.32;;;17.90;99.90;;;;;;4954971;28;20045;-86
2022/06/30 02:27:38;;;;;;;7.20;6.45;;;17.80;99.90;;;;;;4938110;28;20096;-86
2022/06/30 02:30:06;;;;;;;6.85;6.25;;;17.70;99.90;;;;;;4934292;28;20113;-85
2022/06/30 02:32:31;;;;;;;6.50;5.97;;;17.70;99.90;;;;;;4955650;28;20043;-86
2022/06/30 02:34:57;;;;;;;6.70;6.10;;;17.70;99.90;;;;;;4947209;28;20113;-86
2022/06/30 02:37:23;;;;;;;7.22;6.47;;;17.60;99.90;;;;;;4924109;28;20046;-85
2022/06/30 02:39:49;;;;;;;7.60;7.00;;;17.60;99.90;;;;;;4949840;28;20039;-85
2022/06/30 02:42:15;;;;;;;6.95;6.35;;;17.60;99.90;;;;;;4954391;28;20037;-85
2022/06/30 02:44:40;;;;;;;7.22;6.68;;;17.50;99.90;;;;;;4950497;28;20102;-84
2022/06/30 02:47:06;;;;;;;7.70;6.80;;;17.60;99.90;;;;;;4955453;28;20098;-85
2022/06/30 02:49:37;;;;;;;7.28;6.68;;;17.50;99.90;;;;;;4933712;28;20038;-85
2022/06/30 02:52:03;;;;;;;8.00;6.88;;;17.50;99.90;;;;;;4956944;28;20053;-85
2022/06/30 02:54:29;;;;;;;7.28;6.55;;;17.40;99.90;;;;;;4939869;28;20031;-85
2022/06/30 02:56:54;;;;;;;7.35;6.75;;;17.40;99.90;;;;;;4949860;28;20050;-85
2022/06/30 02:59:20;;;;;;;7.70;7.00;;;17.40;99.90;;;;;;4941431;29;20032;-86
2022/06/30 03:01:46;;;;;;;7.70;7.10;;;17.40;99.90;;;;;;4952948;28;20031;-85
2022/06/30 03:04:11;;;;;;;6.97;6.35;;;17.40;99.90;;;;;;4948504;28;20054;-85
2022/06/30 03:06:37;;;;;;;7.53;6.82;;;17.30;99.90;;;;;;4950615;29;20114;-85
2022/06/30 03:09:04;;;;;;;7.00;6.40;;;17.30;99.90;;;;;;4955065;28;20086;-85
2022/06/30 03:11:30;;;;;;;7.22;6.60;;;17.30;99.90;;;;;;4952265;28;20121;-85
2022/06/30 03:13:55;;;;;;;7.32;6.75;;;17.30;99.90;;;;;;4948180;28;20507;-85
2022/06/30 03:16:21;;;;;;;7.47;6.78;;;17.30;99.90;;;;;;4956726;28;20081;-85
2022/06/30 03:18:47;;;;;;;7.32;6.57;;;17.30;99.90;;;;;;4930385;28;20043;-86
2022/06/30 03:21:13;;;;;;;7.40;6.70;;;17.30;99.90;;;;;;4957198;28;20031;-86
2022/06/30 03:23:39;;;;;;;7.28;6.28;;;17.30;99.90;;;;;;4929231;28;20038;-85
2022/06/30 03:26:05;;;;;;;7.60;6.90;;;17.20;99.90;;;;;;4946544;28;20074;-86
2022/06/30 03:28:32;;;;;;;6.93;6.35;;;17.20;99.90;;;;;;4939905;28;20051;-86
2022/06/30 03:30:58;;;;;;;7.38;6.60;;;17.20;99.90;;;;;;4953517;28;20105;-85
2022/06/30 03:33:24;;;;;;;7.22;6.57;;;17.20;99.90;;;;;;4945473;28;20051;-85
2022/06/30 03:35:50;;;;;;;6.85;6.30;;;17.20;99.90;;;;;;4955494;28;20069;-85
2022/06/30 03:38:16;;;;;;;6.85;6.18;;;17.20;99.90;;;;;;4937521;29;20463;-86
2022/06/30 03:40:42;;;;;;;6.78;6.10;;;17.20;99.90;;;;;;4946396;28;20074;-85
2022/06/30 03:43:08;;;;;;;7.22;6.63;;;17.20;99.90;;;;;;4929219;28;20584;-86
2022/06/30 03:45:34;;;;;;;6.30;5.90;;;17.20;99.90;;;;;;4930634;29;20042;-86
2022/06/30 03:48:01;;;;;;;7.03;6.32;;;17.20;99.90;;;;;;4936960;28;20038;-86
2022/06/30 03:50:27;;;;;;;6.80;6.20;;;17.20;99.90;;;;;;4949525;28;20038;-84
2022/06/30 03:52:53;;;;;;;6.40;5.88;;;17.20;99.90;;;;;;4969926;28;20042;-86
2022/06/30 03:55:19;;;;;;;7.22;6.32;;;17.20;99.90;;;;;;4952428;28;20035;-85
2022/06/30 03:57:45;;;;;;;6.50;5.90;;;17.20;99.90;;;;;;4949786;28;20126;-85
2022/06/30 04:00:12;;;;;;;7.65;6.40;;;17.20;99.90;;;;;;4952154;28;20281;-85
2022/06/30 04:02:38;;;;;;;6.70;6.00;;;17.20;99.90;;;;;;4969744;28;20034;-86
2022/06/30 04:05:04;;;;;;;6.57;5.97;;;17.20;99.90;;;;;;4938614;28;20574;-85
2022/06/30 04:07:30;;;;;;;6.95;6.15;;;17.20;99.90;;;;;;4936362;28;20081;-85
2022/06/30 04:09:55;;;;;;;6.50;6.00;;;17.30;99.90;;;;;;4947210;28;20495;-85
2022/06/30 04:12:21;;;;;;;6.68;6.10;;;17.30;99.90;;;;;;4935814;28;20046;-86
2022/06/30 04:14:46;;;;;;;6.75;6.10;;;17.30;99.90;;;;;;4964080;28;20035;-85
2022/06/30 04:17:12;;;;;;;7.38;6.65;;;17.30;99.90;;;;;;4952260;28;20031;-77
2022/06/30 04:19:38;;;;;;;6.90;6.30;;;17.40;99.90;;;;;;4965253;28;20458;-71
2022/06/30 04:22:04;;;;;;;7.07;6.47;;;17.40;99.90;;;;;;4955386;28;20507;-77
2022/06/30 04:24:30;;;;;;;7.05;6.43;;;17.40;99.90;;;;;;4968132;28;20139;-77
2022/06/30 04:26:56;;;;;;;7.20;6.50;;;17.50;99.90;;;;;;4955479;28;20508;-75
2022/06/30 04:29:21;;;;;;;8.95;6.38;;;17.50;99.90;;;;;;4945177;28;20077;-72
2022/06/30 04:34:31;;;;;;;7.82;7.03;;;17.50;99.90;;;;;;4954061;28;20051;-80
2022/06/30 04:36:57;;;;;;;7.47;6.28;;;17.60;99.90;;;;;;4935118;28;20041;-79
2022/06/30 04:39:22;;;;;;;7.00;6.22;;;17.60;99.90;;;;;;4973070;28;20095;-79
2022/06/30 04:41:48;;;;;;;6.97;6.47;;;17.70;99.90;;;;;;4980252;28;20069;-78
2022/06/30 04:44:14;;;;;;;8.23;6.75;;;17.70;99.90;;;;;;4967903;28;20065;-78
2022/06/30 04:46:39;;;;;;;7.03;6.53;;;17.70;99.90;;;;;;4950561;28;20043;-77
2022/06/30 04:49:05;;;;;;;7.80;7.13;;;17.70;99.90;;;;;;4954826;28;20096;-77
2022/06/30 04:51:31;;;;;;;6.75;6.20;;;17.80;99.90;;;;;;4945714;28;20066;-77
2022/06/30 04:53:57;;;;;;;6.82;6.22;;;17.80;99.90;;;;;;4945275;28;20094;-77
2022/06/30 04:56:22;;;;;;;7.63;6.78;;;17.90;99.90;;;;;;4947621;28;20061;-77
2022/06/30 04:58:48;;;;;;;7.85;7.15;;;17.90;99.90;;;;;;4961020;28;20240;-79
2022/06/30 05:01:14;;;;;;;9.27;8.38;;;18.00;99.90;;;;;;4952472;28;20035;-79
2022/06/30 05:03:40;;;;;;;10.93;9.85;;;18.00;99.90;;;;;;4953077;28;20408;-85
2022/06/30 05:06:06;;;;;;;9.02;8.20;;;18.00;99.90;;;;;;4931468;28;20043;-89
2022/06/30 05:08:32;;;;;;;13.60;11.60;;;18.00;99.90;;;;;;4934478;28;20066;-85
2022/06/30 05:10:58;;;;;;;13.27;11.57;;;18.00;99.90;;;;;;4955263;28;20138;-86
2022/06/30 05:13:24;;;;;;;14.95;12.05;;;18.10;99.90;;;;;;4951788;28;20503;-87
2022/06/30 05:15:49;;;;;;;14.25;12.18;;;18.10;99.90;;;;;;4948176;28;20027;-86
2022/06/30 05:18:15;;;;;;;13.18;11.70;;;18.20;99.90;;;;;;4970954;28;20053;-85
2022/06/30 05:20:41;;;;;;;12.68;11.35;;;18.20;99.90;;;;;;4952734;28;20104;-85
2022/06/30 05:23:07;;;;;;;13.73;12.30;;;18.30;99.90;;;;;;4969039;28;20035;-83
2022/06/30 05:28:18;;;;;;;12.55;10.95;;;18.40;99.90;;;;;;4952387;28;20038;-86
2022/06/30 05:30:45;;;;;;;14.13;11.75;;;18.40;99.90;;;;;;4937733;28;20035;-85
2022/06/30 05:33:11;;;;;;;12.45;11.10;;;18.50;99.90;;;;;;4932750;28;20043;-86
2022/06/30 05:35:36;;;;;;;12.75;11.38;;;18.60;99.90;;;;;;4931631;29;20069;-86
2022/06/30 05:38:02;;;;;;;11.15;10.05;;;18.70;99.90;;;;;;4967491;28;20042;-87
2022/06/30 05:40:29;;;;;;;13.63;10.73;;;18.80;99.90;;;;;;4952897;28;20073;-86
2022/06/30 05:42:54;;;;;;;12.20;10.38;;;18.90;99.90;;;;;;4952206;28;20035;-86
2022/06/30 05:45:20;;;;;;;10.55;8.80;;;19.00;99.90;;;;;;4952428;28;20126;-85
2022/06/30 05:47:51;;;;;;;9.50;8.63;;;19.10;99.90;;;;;;4947300;28;20050;-87
2022/06/30 05:50:18;;;;;;;9.55;8.50;;;19.20;99.90;;;;;;4948360;28;20459;-87
2022/06/30 05:52:45;;;;;;;9.55;8.20;;;19.30;99.90;;;;;;4954275;28;20144;-86
2022/06/30 05:55:11;;;;;;;9.52;8.48;;;19.40;99.90;;;;;;4931909;28;20547;-86
2022/06/30 05:58:04;;;;;;;8.68;7.88;;;19.50;99.90;;;;;;4952779;28;20118;-86
2022/06/30 06:00:31;;;;;;;8.90;8.00;;;19.70;99.90;;;;;;4942585;28;20500;-86
2022/06/30 06:02:57;;;;;;;8.73;7.93;;;19.70;99.90;;;;;;4949187;28;20037;-86
2022/06/30 06:05:24;;;;;;;9.15;8.25;;;19.80;99.90;;;;;;4951920;28;20090;-86
2022/06/30 06:07:50;;;;;;;8.77;7.97;;;19.90;99.90;;;;;;4932157;28;20053;-86
2022/06/30 06:10:16;;;;;;;8.05;7.25;;;20.00;99.90;;;;;;4953687;28;20035;-87
2022/06/30 06:12:45;;;;;;;7.97;7.28;;;20.10;99.90;;;;;;4949281;29;20110;-87
2022/06/30 06:15:14;;;;;;;8.38;6.68;;;20.20;99.90;;;;;;4931798;28;20062;-85
2022/06/30 06:17:45;;;;;;;12.38;7.90;;;20.30;99.90;;;;;;4949391;28;20035;-86
2022/06/30 06:20:15;;;;;;;8.98;8.13;;;20.40;99.90;;;;;;4935709;28;20039;-86
2022/06/30 06:22:41;;;;;;;8.57;7.80;;;20.50;99.90;;;;;;4936372;28;20506;-86
2022/06/30 06:25:08;;;;;;;8.18;7.03;;;20.60;99.90;;;;;;4935805;28;20069;-85
2022/06/30 06:27:34;;;;;;;8.68;7.80;;;20.70;99.90;;;;;;4943253;28;20062;-85
2022/06/30 06:30:03;;;;;;;8.25;7.47;;;20.80;99.90;;;;;;4966601;28;20047;-85
2022/06/30 06:32:28;;;;;;;9.18;8.30;;;20.90;99.90;;;;;;4950378;28;20043;-86
2022/06/30 06:34:54;;;;;;;8.65;7.68;;;20.90;99.90;;;;;;4947905;28;20039;-86
2022/06/30 06:37:20;;;;;;;9.00;8.10;;;21.00;99.90;;;;;;4949896;28;20027;-86
2022/06/30 06:39:45;;;;;;;8.77;7.97;;;21.00;99.90;;;;;;4947067;28;20047;-85
2022/06/30 06:42:11;;;;;;;8.93;7.45;;;21.10;99.90;;;;;;4945381;28;20392;-85
2022/06/30 06:44:36;;;;;;;8.90;8.10;;;21.20;99.90;;;;;;4945302;28;20070;-86
2022/06/30 06:47:02;;;;;;;8.75;7.60;;;21.30;99.90;;;;;;4952141;28;20113;-86
2022/06/30 06:49:28;;;;;;;9.38;8.57;;;21.50;99.90;;;;;;4947907;28;20451;-86
2022/06/30 06:51:54;;;;;;;8.70;7.90;;;21.70;99.90;;;;;;4954393;28;20038;-86
2022/06/30 06:54:20;;;;;;;9.50;8.63;;;21.80;99.90;;;;;;4943706;28;20508;-87
2022/06/30 06:56:46;;;;;;;9.25;8.35;;;21.80;99.90;;;;;;4967487;28;20499;-85
2022/06/30 06:59:11;;;;;;;9.30;8.50;;;22.00;99.90;;;;;;4945168;28;20116;-85
2022/06/30 07:01:37;;;;;;;9.80;8.73;;;22.10;99.90;;;;;;4953618;28;20647;-85
2022/06/30 07:04:03;;;;;;;8.82;7.82;;;22.10;99.90;;;;;;4943883;28;20039;-85
2022/06/30 07:06:28;;;;;;;8.50;7.70;;;22.30;99.90;;;;;;4947080;28;20073;-85
2022/06/30 07:08:54;;;;;;;8.15;7.43;;;22.40;99.90;;;;;;4949960;28;20042;-84
2022/06/30 07:11:20;;;;;;;8.60;7.70;;;22.60;99.90;;;;;;4961809;28;20043;-86
2022/06/30 07:13:46;;;;;;;8.85;8.05;;;22.70;99.90;;;;;;4969495;28;20113;-87
2022/06/30 07:16:12;;;;;;;9.10;8.30;;;22.90;99.90;;;;;;4945605;28;20027;-84
2022/06/30 07:18:38;;;;;;;9.85;8.95;;;23.00;99.90;;;;;;4951878;28;20039;-84
2022/06/30 07:21:03;;;;;;;10.23;9.15;;;23.10;99.90;;;;;;4951786;28;20038;-85
2022/06/30 07:23:29;;;;;;;9.63;8.73;;;23.10;99.90;;;;;;4935221;28;20038;-83
2022/06/30 07:25:54;;;;;;;9.55;8.63;;;23.20;99.90;;;;;;4954214;28;20042;-84
2022/06/30 07:28:20;;;;;;;10.07;9.07;;;23.40;99.90;;;;;;4954584;29;20035;-83
2022/06/30 07:30:46;;;;;;;11.38;9.13;;;23.40;99.90;;;;;;4951619;28;20039;-83
2022/06/30 07:33:11;;;;;;;11.55;10.35;;;23.50;99.90;;;;;;4953577;28;20050;-84
2022/06/30 07:35:37;;;;;;;10.45;9.55;;;23.70;99.90;;;;;;4932558;28;20062;-85
2022/06/30 07:38:03;;;;;;;9.13;8.23;;;23.70;99.90;;;;;;4939117;28;20097;-84
2022/06/30 07:40:29;;;;;;;9.32;8.48;;;23.80;99.90;;;;;;4954628;28;20083;-81
2022/06/30 07:42:55;;;;;;;8.88;8.07;;;24.00;99.90;;;;;;4930642;28;20117;-82
2022/06/30 07:45:22;;;;;;;9.50;8.52;;;24.10;99.90;;;;;;4935536;28;20117;-83
2022/06/30 07:47:49;;;;;;;9.55;8.75;;;24.30;99.90;;;;;;4951878;28;20507;-85
2022/06/30 07:50:17;;;;;;;10.43;9.13;;;24.40;99.90;;;;;;4949252;28;20043;-85
2022/06/30 07:52:43;;;;;;;10.43;9.05;;;24.50;99.90;;;;;;4956096;28;20039;-84
2022/06/30 07:55:09;;;;;;;10.55;9.55;;;24.70;99.90;;;;;;4947491;28;20050;-84
2022/06/30 07:57:42;;;;;;;11.43;10.45;;;24.90;99.90;;;;;;4956028;28;20038;-86
2022/06/30 08:00:09;;;;;;;10.43;9.43;;;25.00;99.90;;;;;;4949516;28;20046;-85
2022/06/30 08:02:35;;;;;;;9.43;8.63;;;25.00;99.90;;;;;;4948509;28;20039;-85
2022/06/30 08:05:00;;;;;;;10.13;9.13;;;25.10;99.90;;;;;;4943554;28;20046;-84
2022/06/30 08:07:26;;;;;;;11.63;10.63;;;25.30;99.90;;;;;;4934520;28;20042;-84
2022/06/30 08:09:52;;;;;;;11.45;10.35;;;25.30;99.90;;;;;;4946214;28;20043;-84
2022/06/30 08:12:17;;;;;;;11.68;10.32;;;25.50;99.90;;;;;;4956249;28;20491;-85
2022/06/30 08:14:43;;;;;;;11.52;10.43;;;25.60;99.90;;;;;;4957072;28;20630;-84
2022/06/30 08:17:09;;;;;;;11.35;10.35;;;25.70;99.90;;;;;;4948509;28;20137;-85
2022/06/30 08:19:34;;;;;;;12.77;11.52;;;25.80;99.90;;;;;;4930583;29;20477;-84
2022/06/30 08:22:01;;;;;;;10.95;9.95;;;25.80;99.90;;;;;;4952265;28;20050;-87
2022/06/30 08:24:26;;;;;;;12.07;10.98;;;26.10;99.90;;;;;;4946267;29;20042;-85
2022/06/30 08:26:52;;;;;;;11.85;10.65;;;26.20;99.90;;;;;;4931385;28;20127;-85
2022/06/30 08:29:18;;;;;;;10.85;9.75;;;26.30;99.90;;;;;;4933678;28;20046;-84
2022/06/30 08:31:44;;;;;;;10.85;9.95;;;26.50;99.90;;;;;;4950862;28;20082;-84
2022/06/30 08:34:10;;;;;;;12.85;11.55;;;26.70;99.90;;;;;;4957537;28;20043;-85
2022/06/30 08:36:36;;;;;;;12.63;11.32;;;26.70;98.60;;;;;;4967368;29;20015;-82
2022/06/30 08:39:03;;;;;;;12.27;11.07;;;26.90;97.70;;;;;;4977008;28;20050;-82
2022/06/30 08:44:18;;;;;;;12.45;11.23;;;27.20;97.50;;;;;;4950767;28;20042;-84
2022/06/30 08:46:46;;;;;;;12.23;11.23;;;27.30;95.20;;;;;;4950342;28;20406;-84
2022/06/30 08:49:11;;;;;;;10.93;10.02;;;27.30;95.00;;;;;;4955109;28;20049;-83
2022/06/30 08:51:38;;;;;;;11.55;10.60;;;27.30;95.30;;;;;;4955884;28;20114;-83
2022/06/30 08:54:05;;;;;;;11.45;10.52;;;27.60;96.20;;;;;;4962604;28;20047;-84
2022/06/30 08:56:34;;;;;;;16.25;11.85;;;27.90;95.60;;;;;;4953885;28;20034;-83
2022/06/30 08:59:02;;;;;;;11.73;10.82;;;28.20;94.90;;;;;;4939993;28;20093;-83
2022/06/30 09:01:29;;;;;;;11.45;10.32;;;28.50;92.30;;;;;;4951781;28;20035;-83
2022/06/30 09:03:58;;;;;;;11.80;10.90;;;28.60;91.60;;;;;;4954186;28;20042;-84
2022/06/30 09:06:24;;;;;;;11.90;11.00;;;28.60;88.70;;;;;;4953136;28;20114;-83
2022/06/30 09:08:50;;;;;;;11.48;10.57;;;28.70;87.90;;;;;;4934866;28;20578;-84
2022/06/30 09:11:16;;;;;;;11.70;10.65;;;28.90;88.30;;;;;;4949121;28;20503;-84
2022/06/30 09:13:48;;;;;;;11.55;10.55;;;29.20;89.30;;;;;;4947957;28;20129;-84
2022/06/30 09:16:14;;;;;;;11.07;10.27;;;29.50;85.10;;;;;;4945219;29;20039;-84
2022/06/30 09:18:41;;;;;;;11.27;10.23;;;29.50;81.90;;;;;;4963591;28;20415;-84
2022/06/30 09:21:17;;;;;;;11.73;10.93;;;29.60;80.00;;;;;;4954655;28;20039;-83
2022/06/30 09:23:45;;;;;;;11.27;10.35;;;29.70;75.10;;;;;;4943722;29;20043;-83
2022/06/30 09:26:18;;;;;;;12.25;11.13;;;29.90;79.20;;;;;;4935575;28;20039;-92
2022/06/30 09:28:55;;;;;;;14.10;12.75;;;30.00;75.80;;;;;;4938391;28;20411;-84
2022/06/30 09:31:39;;;;;;;14.23;13.10;;;30.10;76.80;;;;;;4947203;28;20109;-82
2022/06/30 09:34:16;;;;;;;13.57;12.38;;;30.30;74.50;;;;;;4945753;28;20508;-82
2022/06/30 09:36:42;;;;;;;14.18;13.07;;;30.50;72.60;;;;;;4954233;28;20423;-82
2022/06/30 09:39:13;;;;;;;12.00;11.05;;;30.40;73.70;;;;;;4953823;28;20038;-83
2022/06/30 09:41:40;;;;;;;12.80;11.80;;;30.50;72.40;;;;;;4948042;28;20039;-82
2022/06/30 09:44:07;;;;;;;10.88;9.98;;;30.70;70.00;;;;;;4953103;28;20042;-82
2022/06/30 09:46:36;;;;;;;12.02;11.00;;;30.70;69.30;;;;;;4924494;29;20091;-83
2022/06/30 09:49:02;;;;;;;14.85;13.55;;;30.90;68.00;;;;;;4947853;28;20055;-83
2022/06/30 09:51:31;;;;;;;14.90;13.50;;;30.80;64.60;;;;;;4961355;28;20062;-82
2022/06/30 09:54:10;;;;;;;13.13;11.95;;;30.90;64.60;;;;;;4945711;28;20043;-84
2022/06/30 09:56:36;;;;;;;12.05;11.13;;;31.00;64.50;;;;;;4944324;28;20042;-83
2022/06/30 09:59:06;;;;;;;13.10;12.10;;;31.30;65.40;;;;;;4952150;28;20066;-84
2022/06/30 10:01:52;;;;;;;13.52;12.40;;;31.50;62.60;;;;;;4951763;28;20045;-82
2022/06/30 10:04:18;;;;;;;13.27;12.23;;;31.70;60.90;;;;;;4953088;28;20035;-82
2022/06/30 10:06:45;;;;;;;11.15;10.25;;;31.80;62.70;;;;;;4949060;28;20380;-82
2022/06/30 10:12:52;;;;;;;10.88;9.98;;;31.70;60.70;;;;;;4965543;28;20054;-82
2022/06/30 10:15:20;;;;;;;8.93;8.23;;;31.90;61.70;;;;;;4946673;28;20070;-82
2022/06/30 10:17:52;;;;;;;9.15;8.25;;;32.10;59.20;;;;;;4947958;28;20084;-83
2022/06/30 10:20:18;;;;;;;;;;;32.10;58.00;;;;;;4951065;28;20043;-83
2022/06/30 10:22:44;;;;;;;10.57;9.57;;;32.30;55.60;;;;;;4948768;28;19925;-82
2022/06/30 10:25:10;;;;;;;9.88;8.88;;;32.10;56.90;;;;;;4941330;28;20039;-83
2022/06/30 10:27:36;;;;;;;9.70;8.98;;;32.20;55.50;;;;;;4952343;28;20038;-82
2022/06/30 10:30:09;;;;;;;8.45;7.50;;;32.30;55.70;;;;;;4947158;28;20039;-83
2022/06/30 10:32:41;;;;;;;8.40;7.72;;;32.60;55.20;;;;;;4966903;28;20057;-83
2022/06/30 10:35:40;;;;;;;8.13;7.38;;;32.70;53.90;;;;;;4934884;28;20047;-83
2022/06/30 10:38:15;;;;;;;8.48;7.82;;;32.90;52.40;;;;;;4940329;28;20049;-83
2022/06/30 10:40:43;;;;;;;8.43;7.82;;;33.00;53.40;;;;;;4941603;28;20035;-82
2022/06/30 10:43:09;;;;;;;8.70;8.00;;;33.00;52.60;;;;;;4953106;28;20046;-83
2022/06/30 10:45:35;;;;;;;8.80;8.02;;;33.10;52.50;;;;;;4953074;28;20043;-83
2022/06/30 10:48:02;;;;;;;7.65;7.05;;;33.20;53.20;;;;;;4923175;28;20065;-83
2022/06/30 10:50:43;;;;;;;7.00;6.38;;;33.20;52.20;;;;;;4940101;28;20126;-82
2022/06/30 10:53:13;;;;;;;7.50;6.90;;;32.90;51.40;;;;;;4947222;28;20042;-83
2022/06/30 10:55:48;;;;;;;7.00;6.35;;;33.00;51.00;;;;;;4950619;28;20046;-82
2022/06/30 10:58:14;;;;;;;7.03;6.40;;;33.30;50.90;;;;;;4956239;28;20553;-83
2022/06/30 11:01:09;;;;;;;7.38;5.90;;;33.30;50.00;;;;;;4950172;29;20027;-82
2022/06/30 11:03:35;;;;;;;6.20;5.70;;;33.60;50.50;;;;;;4953032;28;20042;-82
2022/06/30 11:06:10;;;;;;;6.10;5.65;;;33.60;50.20;;;;;;4972554;28;20054;-82
2022/06/30 11:08:39;;;;;;;5.05;4.72;;;33.70;49.40;;;;;;4945833;28;20051;-83
2022/06/30 11:11:23;;;;;;;5.82;5.38;;;33.80;48.10;;;;;;4950251;28;20058;-82
2022/06/30 11:14:11;;;;;;;5.10;4.70;;;33.60;48.50;;;;;;4964170;28;20043;-83
2022/06/30 11:16:39;;;;;;;4.80;4.40;;;33.90;47.40;;;;;;4955143;28;20031;-83
2022/06/30 11:19:14;;;;;;;4.63;4.25;;;34.20;47.70;;;;;;4952121;28;20358;-83
2022/06/30 11:21:44;;;;;;;7.15;6.47;;;34.60;47.20;;;;;;4952510;28;20479;-82
2022/06/30 11:24:11;;;;;;;7.10;6.38;;;34.60;46.60;;;;;;4955372;28;20042;-81
2022/06/30 11:29:26;;;;;;;6.80;6.20;;;34.80;48.20;;;;;;4951063;28;20058;-82
2022/06/30 11:31:58;;;;;;;6.22;5.72;;;34.20;47.20;;;;;;4949688;28;20423;-82
2022/06/30 11:34:26;;;;;;;6.30;5.90;;;34.10;46.60;;;;;;4953304;28;20043;-82
2022/06/30 11:36:52;;;;;;;6.88;6.28;;;34.00;47.20;;;;;;4953225;28;20468;-83
2022/06/30 11:39:20;;;;;;;5.95;5.45;;;33.80;46.70;;;;;;4948171;28;20037;-82
2022/06/30 11:42:02;;;;;;;5.75;5.20;;;33.80;47.60;;;;;;4960201;28;20099;-81
2022/06/30 11:44:40;;;;;;;6.50;5.50;;;33.80;47.20;;;;;;4976681;28;20039;-82
2022/06/30 11:47:10;;;;;;;5.93;5.43;;;33.60;47.40;;;;;;4964904;28;20119;-82
2022/06/30 11:49:45;;;;;;;5.90;5.40;;;33.20;46.30;;;;;;4971333;28;20090;-81
2022/06/30 11:52:16;;;;;;;5.90;5.50;;;33.20;47.60;;;;;;4961137;28;20512;-82
2022/06/30 11:54:53;;;;;;;6.65;6.10;;;33.30;48.40;;;;;;4942652;28;20428;-82
2022/06/30 11:57:21;;;;;;;6.68;5.97;;;33.70;47.00;;;;;;4943855;29;20070;-82
2022/06/30 11:59:49;;;;;;;5.55;5.15;;;33.60;47.80;;;;;;4933826;28;20030;-83
2022/06/30 12:02:16;;;;;;;5.97;5.35;;;33.80;46.40;;;;;;4947200;28;20064;-82
2022/06/30 12:04:42;;;;;;;5.80;4.90;;;34.20;46.20;;;;;;4955536;28;20039;-83
2022/06/30 12:07:13;;;;;;;5.20;4.80;;;34.50;46.70;;;;;;4955605;28;20049;-83
2022/06/30 12:09:40;;;;;;;5.38;4.88;;;34.80;47.00;;;;;;4949887;28;20039;-81
2022/06/30 12:12:08;;;;;;;6.15;5.60;;;35.10;46.10;;;;;;4963424;28;20133;-83
2022/06/30 12:14:39;;;;;;;5.43;4.95;;;34.70;43.70;;;;;;4970364;28;20039;-82
2022/06/30 12:17:10;;;;;;;7.07;4.95;;;34.50;45.60;;;;;;4932304;28;20090;-83
2022/06/30 12:19:37;;;;;;;6.88;5.57;;;34.70;45.70;;;;;;4932081;29;20082;-82
2022/06/30 12:22:04;;;;;;;4.85;4.43;;;35.00;46.10;;;;;;4952456;28;20043;-81
2022/06/30 12:24:30;;;;;;;5.43;4.20;;;35.40;44.40;;;;;;4939364;28;20241;-82
2022/06/30 12:26:58;;;;;;;5.55;3.85;;;35.50;42.50;;;;;;4934740;28;20039;-81
2022/06/30 12:29:26;;;;;;;4.10;3.70;;;35.30;41.80;;;;;;4941736;28;20035;-81
2022/06/30 12:32:00;;;;;;;4.25;3.75;;;34.90;43.10;;;;;;4952616;28;20042;-81
2022/06/30 12:34:26;;;;;;;4.28;3.88;;;35.20;42.20;;;;;;4961462;28;20112;-81
2022/06/30 12:36:57;;;;;;;4.53;4.15;;;35.30;42.20;;;;;;4964068;28;20078;-82
2022/06/30 12:39:22;;;;;;;4.25;3.83;;;35.40;41.40;;;;;;4958657;28;20070;-82
2022/06/30 12:41:48;;;;;;;4.38;3.38;;;35.60;41.90;;;;;;4963715;29;20034;-81
2022/06/30 12:44:14;;;;;;;3.25;2.95;;;35.60;41.40;;;;;;4951496;28;20041;-80
2022/06/30 12:46:46;;;;;;;3.25;2.78;;;36.10;41.50;;;;;;4973544;28;20026;-80
2022/06/30 12:49:23;;;;;;;3.97;2.85;;;35.90;40.60;;;;;;4980267;28;20031;-81
2022/06/30 12:51:49;;;;;;;3.85;3.08;;;36.00;39.40;;;;;;4951904;28;20058;-82
2022/06/30 12:54:18;;;;;;;4.47;2.20;;;35.70;40.30;;;;;;4945636;28;20039;-82
2022/06/30 12:56:53;;;;;;;5.00;2.45;;;35.80;40.40;;;;;;4943864;29;20053;-81
2022/06/30 12:59:23;;;;;;;2.75;2.22;;;35.80;40.00;;;;;;4944817;29;20093;-82
2022/06/30 13:02:00;;;;;;;4.20;2.30;;;35.80;38.40;;;;;;4943755;28;20427;-82